METAR Data
IDs: Format: Raw Decoded Include TAF

Data at: 0108 UTC 05 Jul 2022

METAR for:OEDF (Dammam/King Fahd Int, AS, SA)
Text:OEDF 050100Z 27007KT CAVOK 32/06 Q0994 NOSIG
Temperature: 32.0°C ( 90°F)
Dewpoint: 6.0°C ( 43°F) [RH = 20%]
Pressure (altimeter):29.35 inches Hg ( 994.0 mb)
Winds:from the W (270 degrees) at 8 MPH (7 knots; 3.6 m/s)
Visibility:6 or more sm (10+ km)
Ceiling:ceiling and visibility are OK
Clouds:unknown